메인 페이지
METAR-TAF:

METAR-TAF

공항 :

브리지포트, 코네티컷, 미국

위도: 41-09-30N, 경도: 073-07-44W, 고도: 3m

현재 날씨관측

예보는 20분 전, 03:02시(UTC)에 발표되었습니다.
남남서8kt
온도 19°C
습도 88%
기압 1013 hPa
시정: 16.1km
고도 900ft 상공 구름 조금

METAR: KBDR 300302Z AUTO 20008KT 10SM FEW009 19/17 A2990 RMK AO2 T01890172

시각: 23:22 (03:22 UTC)

예보

예보는 3 시간 40분 전, 23:42시(UTC)에 발표되었습니다.
예보 대상 시간: 30일 00시부터 30일 24시까지 (UTC)
11kt
시정: 10km
고도 800ft 상공 구름 보통
고도 3500ft 상공 구름 많음
시계 내 소나기
일시적
30일 00시부터 30일 03시까지 (UTC)
시정: 4.8km
고도 800ft 상공 구름 많음
박무
30일 0300시부터 (UTC)
남남서8kt
시정: 4.8km
고도 400ft 상공 흐림
박무
30일 1000시부터 (UTC)
남서6kt
시정: 10km
고도 400ft 상공 구름 보통
고도 1500ft 상공 구름 보통
30일 1200시부터 (UTC)
서북서8kt
시정: 10km
고도 2500ft 상공 구름 보통
고도 10000ft 상공 구름 보통
30일 1800시부터 (UTC)
남서9kt
시정: 10km
고도 6000ft 상공 구름 보통

TAF: KBDR 292342Z 3000/3024 19011KT P6SM VCSH SCT008 BKN035 TEMPO 3000/3003 3SM BR BKN008 FM300300 20008KT 3SM BR OVC004 FM301000 23006KT P6SM SCT004 SCT015 FM301200 29008KT P6SM SCT025 SCT100 FM301800 23009KT P6SM SCT060

4,000개 이상의 공항 관측 자료 및 예보 (METAR 및 TAF 보고).

지도상에서 검색 가능한 기상관측소가 노란 점과 빨간 점으로 표시되어 있습니다.

기상관측소 명을 보려면 표시 위로 마우스를 이동하세요.

날씨 관측과 예보를 보려면 클릭하세요.

지도 변경 : 확대하려면 엑스 표시가 있는 녹색 버튼, 축소하려면 빼기 표시가 있는 녹색 버튼, 다음 페이지의 지도를 보려면 녹색 화살표를 클릭하세요.


METAR-TAF: